createdAt,value
2023-01-26T00:01:44.955Z,99989.66
2023-01-26T00:04:14.226Z,99986.13
2023-01-26T00:06:42.103Z,99981.59
2023-01-26T00:09:14.075Z,99981.72
2023-01-26T00:11:42.353Z,99981.03
2023-01-26T00:14:10.278Z,99972.38
2023-01-26T00:16:38.312Z,99976.13
2023-01-26T00:19:06.653Z,99978.72
2023-01-26T00:21:34.611Z,99978.28
2023-01-26T00:24:02.722Z,99973.34
2023-01-26T00:26:31.214Z,99976.56
2023-01-26T00:29:00.804Z,99966.34
2023-01-26T00:31:29.157Z,99967.12
2023-01-26T00:33:57.791Z,99967.09
2023-01-26T00:36:25.995Z,99967.81
2023-01-26T00:38:53.962Z,99968.31
2023-01-26T00:41:40.683Z,99965.09
2023-01-26T00:44:09.898Z,99965.66
2023-01-26T00:46:38.439Z,99968.72
2023-01-26T00:49:07.889Z,99967.44
2023-01-26T00:51:36.082Z,99960.19
2023-01-26T00:54:05.292Z,99958.59
2023-01-26T00:56:33.266Z,99957.56
2023-01-26T00:59:01.214Z,99954.78
2023-01-26T01:01:29.503Z,99952.88
2023-01-26T01:03:57.363Z,99949.69
2023-01-26T01:06:25.435Z,99958.50
2023-01-26T01:08:53.716Z,99955.91
2023-01-26T01:11:21.785Z,99947.22
2023-01-26T01:13:51.925Z,99950.13
2023-01-26T01:16:20.457Z,99954.06
2023-01-26T01:18:48.465Z,99951.44
2023-01-26T01:21:17.602Z,99947.97
2023-01-26T01:23:45.914Z,99948.34
2023-01-26T01:26:14.896Z,99940.53
2023-01-26T01:28:44.139Z,99941.22
2023-01-26T01:31:17.302Z,99936.84
2023-01-26T01:33:45.264Z,99932.75
2023-01-26T01:36:16.712Z,99932.13
2023-01-26T01:38:45.941Z,99933.75
2023-01-26T01:41:17.381Z,99926.59
2023-01-26T01:43:45.500Z,99926.13
2023-01-26T01:46:36.219Z,99928.66
2023-01-26T01:49:29.472Z,99930.78
2023-01-26T01:52:18.873Z,99924.13
2023-01-26T01:54:52.794Z,99923.72
2023-01-26T01:57:28.782Z,99921.50
2023-01-26T02:00:09.428Z,99924.81
2023-01-26T02:02:41.999Z,99916.59
2023-01-26T02:05:34.177Z,99913.56
2023-01-26T02:08:03.429Z,99905.50
2023-01-26T02:10:32.565Z,99899.47
2023-01-26T02:13:01.047Z,99900.75
2023-01-26T02:15:30.524Z,99893.19
2023-01-26T02:18:01.977Z,99894.31
2023-01-26T02:20:37.653Z,99888.44
2023-01-26T02:23:26.564Z,99892.09
2023-01-26T02:25:57.470Z,99886.09
2023-01-26T02:28:27.281Z,99889.09
2023-01-26T02:30:56.653Z,99875.19
2023-01-26T02:33:26.927Z,99882.81
2023-01-26T02:35:56.436Z,99870.75
2023-01-26T02:38:27.771Z,99865.31
2023-01-26T02:40:58.232Z,99862.56
2023-01-26T02:43:27.259Z,99857.28
2023-01-26T02:45:55.749Z,99865.19
2023-01-26T02:48:42.384Z,99853.97
2023-01-26T02:51:10.764Z,99850.63
2023-01-26T02:53:38.814Z,99849.66
2023-01-26T02:56:07.507Z,99848.09
2023-01-26T02:58:35.880Z,99846.25
2023-01-26T03:01:04.026Z,99840.53
2023-01-26T03:03:45.347Z,99835.13
2023-01-26T03:06:15.436Z,99827.47
2023-01-26T03:08:43.527Z,99825.94
2023-01-26T03:11:11.619Z,99826.16
2023-01-26T03:13:40.872Z,99824.09
2023-01-26T03:16:10.491Z,99830.75
2023-01-26T03:18:57.468Z,99818.87
2023-01-26T03:21:44.658Z,99825.59
2023-01-26T03:24:32.804Z,99816.47
2023-01-26T03:27:19.965Z,99814.62
2023-01-26T03:29:47.869Z,99807.66
2023-01-26T03:32:16.262Z,99808.81
2023-01-26T03:34:44.281Z,99807.25
2023-01-26T03:37:12.528Z,99803.28
2023-01-26T03:39:59.474Z,99800.25
2023-01-26T03:42:46.317Z,99801.91
2023-01-26T03:45:33.525Z,99800.56
2023-01-26T03:48:28.025Z,99797.16
2023-01-26T03:51:15.568Z,99790.16
2023-01-26T03:54:02.798Z,99786.81
2023-01-26T03:56:34.910Z,99785.47
2023-01-26T03:59:08.702Z,99785.94
2023-01-26T04:01:42.233Z,99777.63
2023-01-26T04:04:30.104Z,99776.19
2023-01-26T04:07:16.534Z,99777.00
2023-01-26T04:09:45.555Z,99781.06
2023-01-26T04:12:14.389Z,99774.66
2023-01-26T04:15:01.765Z,99777.97
2023-01-26T04:17:48.503Z,99767.75
2023-01-26T04:20:34.814Z,99773.75
2023-01-26T04:23:03.176Z,99770.03
2023-01-26T04:25:31.234Z,99778.19
2023-01-26T04:27:59.244Z,99762.28
2023-01-26T04:30:27.568Z,99770.56
2023-01-26T04:32:55.698Z,99769.00
2023-01-26T04:35:23.973Z,99765.75
2023-01-26T04:37:52.363Z,99763.34
2023-01-26T04:40:21.040Z,99758.44
2023-01-26T04:42:49.213Z,99757.75
2023-01-26T04:45:17.898Z,99757.37
2023-01-26T04:47:46.233Z,99755.31
2023-01-26T04:50:16.415Z,99750.06
2023-01-26T04:52:46.338Z,99749.16
2023-01-26T04:55:15.212Z,99756.06
2023-01-26T04:57:43.244Z,99755.94
2023-01-26T05:00:12.999Z,99747.94
2023-01-26T05:02:41.724Z,99747.63
2023-01-26T05:05:10.160Z,99744.59
2023-01-26T05:07:38.523Z,99754.47
2023-01-26T05:10:06.764Z,99746.78
2023-01-26T05:12:35.014Z,99752.00
2023-01-26T05:15:06.338Z,99750.16
2023-01-26T05:17:36.819Z,99751.06
2023-01-26T05:20:08.673Z,99740.72
2023-01-26T05:22:37.025Z,99742.16
2023-01-26T05:25:06.923Z,99752.03
2023-01-26T05:27:35.306Z,99746.16
2023-01-26T05:30:03.972Z,99745.88
2023-01-26T05:32:32.311Z,99739.06
2023-01-26T05:35:00.614Z,99742.09
2023-01-26T05:37:29.288Z,99741.59
2023-01-26T05:39:57.572Z,99745.25
2023-01-26T05:42:26.455Z,99741.41
2023-01-26T05:44:55.235Z,99740.38
2023-01-26T05:47:23.358Z,99750.13
2023-01-26T05:49:52.058Z,99755.56
2023-01-26T05:52:22.168Z,99752.97
2023-01-26T05:54:50.640Z,99756.91
2023-01-26T05:57:19.177Z,99754.88
2023-01-26T05:59:48.153Z,99759.03
2023-01-26T06:02:16.257Z,99761.94
2023-01-26T06:04:44.882Z,99762.72
2023-01-26T06:07:15.697Z,99760.38
2023-01-26T06:09:43.836Z,99751.38
2023-01-26T06:12:17.080Z,99753.59
2023-01-26T06:14:47.434Z,99752.28
2023-01-26T06:17:17.823Z,99752.84
2023-01-26T06:19:46.043Z,99746.56
2023-01-26T06:22:14.765Z,99749.81
2023-01-26T06:24:44.632Z,99754.78
2023-01-26T06:27:14.641Z,99753.09
2023-01-26T06:29:44.771Z,99755.34
2023-01-26T06:32:14.139Z,99752.09
2023-01-26T06:34:43.616Z,99747.06
2023-01-26T06:37:11.870Z,99750.69
2023-01-26T06:39:41.824Z,99745.28
2023-01-26T06:42:10.284Z,99749.25
2023-01-26T06:44:39.018Z,99744.19
2023-01-26T06:47:07.975Z,99751.38
2023-01-26T06:49:36.583Z,99748.25
2023-01-26T06:52:27.471Z,99745.41
2023-01-26T06:54:58.941Z,99742.56
2023-01-26T06:57:27.337Z,99740.41
2023-01-26T06:59:57.534Z,99737.44
2023-01-26T07:02:26.063Z,99736.03
2023-01-26T07:04:54.120Z,99742.66
2023-01-26T07:07:22.204Z,99738.97
2023-01-26T07:09:50.554Z,99739.25
2023-01-26T07:12:18.565Z,99738.72
2023-01-26T07:14:46.986Z,99739.22
2023-01-26T07:17:15.389Z,99733.59
2023-01-26T07:19:43.346Z,99729.97
2023-01-26T07:22:11.282Z,99733.00
2023-01-26T07:24:39.720Z,99727.72
2023-01-26T07:27:07.682Z,99727.13
2023-01-26T07:29:35.616Z,99723.00
2023-01-26T07:32:04.052Z,99732.78
2023-01-26T07:34:32.032Z,99733.25
2023-01-26T07:37:00.061Z,99731.03
2023-01-26T07:39:28.334Z,99711.41
2023-01-26T07:41:56.254Z,99720.44
2023-01-26T07:44:24.708Z,99718.09
2023-01-26T07:46:54.824Z,99724.88
2023-01-26T07:49:22.720Z,99721.84
2023-01-26T07:51:52.719Z,99719.00
2023-01-26T07:54:23.962Z,99722.50
2023-01-26T07:56:53.200Z,99728.44
2023-01-26T07:59:22.361Z,99722.59
2023-01-26T08:01:51.447Z,99720.38
2023-01-26T08:04:19.825Z,99721.72
2023-01-26T08:06:47.833Z,99724.59
2023-01-26T08:09:15.893Z,99721.28
2023-01-26T08:11:44.253Z,99722.19
2023-01-26T08:14:12.333Z,99719.13
2023-01-26T08:16:40.303Z,99715.28
2023-01-26T08:19:08.763Z,99724.13
2023-01-26T08:35:54.338Z,99716.56
2023-01-26T08:38:24.287Z,99717.44
2023-01-26T08:40:53.289Z,99722.25
2023-01-26T08:43:21.363Z,99718.25
2023-01-26T08:45:49.791Z,99712.47
2023-01-26T08:48:18.505Z,99711.41
2023-01-26T08:50:47.016Z,99713.63
2023-01-26T08:53:15.516Z,99714.34
2023-01-26T08:55:43.647Z,99713.81
2023-01-26T08:58:11.828Z,99714.75
2023-01-26T09:00:40.319Z,99714.34
2023-01-26T09:03:09.347Z,99717.91
2023-01-26T09:05:39.034Z,99717.38
2023-01-26T09:08:09.359Z,99711.41
2023-01-26T09:10:39.829Z,99716.72
2023-01-26T09:13:08.452Z,99719.06
2023-01-26T09:15:38.293Z,99709.19
2023-01-26T09:18:06.535Z,99712.94
2023-01-26T09:20:37.047Z,99716.28
2023-01-26T09:23:05.239Z,99715.12
2023-01-26T09:25:36.126Z,99717.28
2023-01-26T09:28:05.682Z,99711.16
2023-01-26T09:30:35.229Z,99708.38
2023-01-26T09:33:05.899Z,99713.44
2023-01-26T09:35:36.085Z,99712.00
2023-01-26T09:38:04.276Z,99702.81
2023-01-26T09:40:52.820Z,99709.31
2023-01-26T09:43:44.138Z,99708.91
2023-01-26T09:46:21.374Z,99695.87
2023-01-26T09:49:14.191Z,99693.00
2023-01-26T09:52:17.257Z,99696.94
2023-01-26T09:54:50.231Z,99690.53
2023-01-26T09:57:23.909Z,99690.94
2023-01-26T10:00:15.736Z,99686.06
2023-01-26T10:03:14.509Z,99684.69
2023-01-26T10:06:13.993Z,99680.16
2023-01-26T10:09:01.948Z,99669.97
2023-01-26T10:11:38.519Z,99665.22
2023-01-26T10:14:23.096Z,99662.00
2023-01-26T10:16:52.157Z,99663.47
2023-01-26T10:19:44.637Z,99656.84
2023-01-26T10:22:27.182Z,99647.53
2023-01-26T10:24:57.145Z,99646.03
2023-01-26T10:27:25.243Z,99645.03
2023-01-26T10:29:53.308Z,99646.25
2023-01-26T10:32:22.027Z,99635.16
2023-01-26T10:34:51.726Z,99633.69
2023-01-26T10:37:23.127Z,99620.25
2023-01-26T10:40:07.811Z,99619.84
2023-01-26T10:42:38.333Z,99623.28
2023-01-26T10:45:25.738Z,99621.00
2023-01-26T10:48:19.364Z,99618.31
2023-01-26T10:50:48.718Z,99616.34
2023-01-26T10:53:20.499Z,99614.75
2023-01-26T10:56:02.644Z,99616.59
2023-01-26T10:59:00.110Z,99610.84
2023-01-26T11:01:28.772Z,99616.31
2023-01-26T11:04:15.018Z,99610.69
2023-01-26T11:06:43.679Z,99607.34
2023-01-26T11:09:14.748Z,99599.06
2023-01-26T11:11:55.939Z,99595.75
2023-01-26T11:14:24.452Z,99600.34
2023-01-26T11:17:35.184Z,99597.13
2023-01-26T11:20:35.878Z,99597.94
2023-01-26T11:23:15.875Z,99590.72
2023-01-26T11:26:07.228Z,99583.19
2023-01-26T11:28:54.603Z,99579.25
2023-01-26T11:31:31.605Z,99578.69
2023-01-26T11:34:11.765Z,99573.63
2023-01-26T11:36:55.534Z,99572.69
2023-01-26T11:39:29.226Z,99574.28
2023-01-26T11:42:16.141Z,99578.59
2023-01-26T11:45:13.685Z,99570.66
2023-01-26T11:47:54.825Z,99558.28
2023-01-26T11:50:45.632Z,99561.56
2023-01-26T11:53:32.571Z,99552.00
2023-01-26T11:56:09.723Z,99548.06
2023-01-26T11:58:38.177Z,99547.97
2023-01-26T12:01:15.901Z,99542.59
2023-01-26T12:03:47.376Z,99534.38
2023-01-26T12:06:45.859Z,99527.91
2023-01-26T12:09:36.890Z,99527.94
2023-01-26T12:12:22.459Z,99520.41
2023-01-26T12:14:53.170Z,99515.16
2023-01-26T12:17:24.085Z,99515.03
2023-01-26T12:20:28.157Z,99509.72
2023-01-26T12:23:10.185Z,99508.16
2023-01-26T12:25:40.854Z,99514.75
2023-01-26T12:28:25.968Z,99511.03
2023-01-26T12:31:22.102Z,99509.72
2023-01-26T12:33:53.268Z,99507.88
2023-01-26T12:36:47.042Z,99510.44
2023-01-26T12:39:23.594Z,99506.69
2023-01-26T12:42:23.053Z,99500.78
2023-01-26T12:45:00.547Z,99495.75
2023-01-26T12:47:54.266Z,99490.97
2023-01-26T12:50:43.769Z,99496.31
2023-01-26T12:53:49.339Z,99498.37
2023-01-26T12:56:37.209Z,99486.03
2023-01-26T12:59:39.716Z,99490.50
2023-01-26T13:02:16.510Z,99486.28
2023-01-26T13:04:47.259Z,99488.47
2023-01-26T13:07:33.118Z,99484.84
2023-01-26T13:10:23.839Z,99484.91
2023-01-26T13:12:57.536Z,99474.66
2023-01-26T13:15:32.955Z,99479.66
2023-01-26T13:18:06.318Z,99476.16
2023-01-26T13:20:45.903Z,99472.25
2023-01-26T13:23:29.409Z,99478.56
2023-01-26T13:26:22.359Z,99476.72
2023-01-26T13:28:51.157Z,99472.59
2023-01-26T13:31:33.317Z,99474.75
2023-01-26T13:34:03.932Z,99476.97
2023-01-26T13:36:36.620Z,99475.16
2023-01-26T13:39:13.511Z,99474.19
2023-01-26T13:41:48.698Z,99477.84
2023-01-26T13:44:39.119Z,99470.31
2023-01-26T13:47:11.593Z,99475.00
2023-01-26T13:49:41.452Z,99471.47
2023-01-26T13:52:31.639Z,99480.03
2023-01-26T13:55:03.241Z,99483.56
2023-01-26T13:57:32.017Z,99469.47
2023-01-26T14:00:01.326Z,99473.19
2023-01-26T14:02:40.374Z,99471.00
2023-01-26T14:05:22.618Z,99466.41
2023-01-26T14:07:52.347Z,99462.81
2023-01-26T14:10:21.482Z,99464.31
2023-01-26T14:12:52.223Z,99469.84
2023-01-26T14:15:26.026Z,99468.47
2023-01-26T14:18:02.520Z,99460.47
2023-01-26T14:20:39.711Z,99463.59
2023-01-26T14:23:08.074Z,99457.66
2023-01-26T14:25:38.013Z,99468.13
2023-01-26T14:28:06.992Z,99467.59
2023-01-26T14:30:35.355Z,99470.09
2023-01-26T14:33:16.096Z,99469.00
2023-01-26T14:36:02.263Z,99472.53
2023-01-26T14:38:39.260Z,99468.56
2023-01-26T14:41:13.638Z,99482.16
2023-01-26T14:43:42.162Z,99471.94
2023-01-26T14:46:18.630Z,99470.03
2023-01-26T14:48:55.667Z,99467.13
2023-01-26T14:51:29.365Z,99460.84
2023-01-26T14:54:04.530Z,99456.50
2023-01-26T14:56:41.360Z,99455.72
2023-01-26T14:59:21.579Z,99457.63
2023-01-26T15:01:50.030Z,99453.97
2023-01-26T15:04:32.318Z,99455.03
2023-01-26T15:07:35.220Z,99458.88
2023-01-26T15:10:28.811Z,99464.06
2023-01-26T15:13:18.411Z,99468.88
2023-01-26T15:15:49.166Z,99463.78
2023-01-26T15:18:19.507Z,99470.69
2023-01-26T15:21:00.817Z,99462.88
2023-01-26T15:23:55.299Z,99463.62
2023-01-26T15:26:27.822Z,99462.75
2023-01-26T15:28:57.841Z,99459.97
2023-01-26T15:31:35.538Z,99461.28
2023-01-26T15:34:04.225Z,99466.53
2023-01-26T15:36:47.875Z,99464.84
2023-01-26T15:39:20.354Z,99461.34
2023-01-26T15:42:13.696Z,99453.88
2023-01-26T15:44:42.231Z,99459.84
2023-01-26T15:47:12.324Z,99459.44
2023-01-26T15:49:42.430Z,99459.31
2023-01-26T15:52:13.889Z,99461.81
2023-01-26T15:54:42.289Z,99459.78
2023-01-26T15:57:12.014Z,99468.34
2023-01-26T15:59:41.227Z,99459.50
2023-01-26T16:02:18.202Z,99464.19
2023-01-26T16:04:47.566Z,99470.56
2023-01-26T16:07:19.174Z,99472.78
2023-01-26T16:09:49.283Z,99470.31
2023-01-26T16:12:31.230Z,99464.69
2023-01-26T16:15:01.244Z,99465.06
2023-01-26T16:17:29.556Z,99466.78
2023-01-26T16:19:57.925Z,99464.56
2023-01-26T16:22:26.763Z,99466.06
2023-01-26T16:24:55.050Z,99466.97
2023-01-26T16:27:23.412Z,99466.41
2023-01-26T16:29:52.007Z,99469.72
2023-01-26T16:32:28.734Z,99472.53
2023-01-26T16:34:57.357Z,99465.91
2023-01-26T16:37:25.571Z,99459.69
2023-01-26T16:39:55.398Z,99465.84
2023-01-26T16:42:23.903Z,99464.72
2023-01-26T16:44:52.107Z,99464.66
2023-01-26T16:47:20.244Z,99463.94
2023-01-26T16:49:51.036Z,99465.75
2023-01-26T16:52:19.165Z,99467.41
2023-01-26T16:54:48.693Z,99460.59
2023-01-26T16:57:17.417Z,99459.25
2023-01-26T16:59:45.696Z,99459.41
2023-01-26T17:02:35.129Z,99462.72
2023-01-26T17:05:05.414Z,99457.88
2023-01-26T17:07:33.496Z,99466.22
2023-01-26T17:10:01.535Z,99455.13
2023-01-26T17:12:29.898Z,99453.03
2023-01-26T17:14:57.855Z,99443.38
2023-01-26T17:17:25.866Z,99449.72
2023-01-26T17:19:54.432Z,99447.94
2023-01-26T17:22:22.424Z,99451.41
2023-01-26T17:24:50.589Z,99450.66
2023-01-26T17:27:19.138Z,99438.78
2023-01-26T17:29:49.589Z,99445.66
2023-01-26T17:32:24.150Z,99447.03
2023-01-26T17:34:53.672Z,99439.31
2023-01-26T17:37:23.169Z,99435.41
2023-01-26T17:39:51.499Z,99437.81
2023-01-26T17:42:20.038Z,99437.50
2023-01-26T17:44:48.298Z,99436.53
2023-01-26T17:47:16.445Z,99433.94
2023-01-26T17:49:44.920Z,99437.50
2023-01-26T17:52:14.554Z,99431.38
2023-01-26T17:54:42.886Z,99432.88
2023-01-26T17:57:12.196Z,99429.09
2023-01-26T17:59:40.357Z,99426.66
2023-01-26T18:02:11.084Z,99424.34
2023-01-26T18:04:39.631Z,99430.63
2023-01-26T18:07:07.777Z,99430.25
2023-01-26T18:09:36.017Z,99435.13
2023-01-26T18:12:05.088Z,99425.06
2023-01-26T18:14:33.435Z,99429.13
2023-01-26T18:17:01.637Z,99430.84
2023-01-26T18:19:30.315Z,99433.06
2023-01-26T18:21:58.567Z,99426.19
2023-01-26T18:24:26.870Z,99433.31
2023-01-26T18:26:55.431Z,99433.94
2023-01-26T18:29:23.685Z,99433.88
2023-01-26T18:31:52.035Z,99435.56
2023-01-26T18:34:20.603Z,99439.78
2023-01-26T18:36:48.930Z,99433.22
2023-01-26T18:39:17.609Z,99433.50
2023-01-26T18:41:46.100Z,99431.38
2023-01-26T18:44:14.284Z,99430.09
2023-01-26T18:46:42.470Z,99433.47
2023-01-26T18:49:11.245Z,99426.81
2023-01-26T18:51:39.346Z,99435.38
2023-01-26T18:54:09.888Z,99430.66
2023-01-26T18:56:38.517Z,99431.97
2023-01-26T18:59:10.778Z,99429.34
2023-01-26T19:01:40.029Z,99429.78
2023-01-26T19:04:08.286Z,99428.00
2023-01-26T19:06:36.630Z,99434.63
2023-01-26T19:09:08.513Z,99420.50
2023-01-26T19:11:38.553Z,99420.72
2023-01-26T19:14:08.010Z,99423.16
2023-01-26T19:16:36.661Z,99421.59
2023-01-26T19:19:05.435Z,99414.19
2023-01-26T19:21:34.387Z,99418.81
2023-01-26T19:24:06.007Z,99404.84
2023-01-26T19:26:34.688Z,99410.19
2023-01-26T19:29:02.847Z,99402.81
2023-01-26T19:31:32.397Z,99399.03
2023-01-26T19:34:03.235Z,99404.59
2023-01-26T19:36:34.016Z,99403.88
2023-01-26T19:39:03.769Z,99392.84
2023-01-26T19:41:32.008Z,99390.78
2023-01-26T19:44:01.140Z,99403.62
2023-01-26T19:46:29.597Z,99393.84
2023-01-26T19:48:57.784Z,99395.88
2023-01-26T19:51:27.288Z,99394.19
2023-01-26T19:53:57.910Z,99388.75
2023-01-26T19:56:31.612Z,99384.84
2023-01-26T19:59:02.617Z,99393.75
2023-01-26T20:01:32.441Z,99384.94
2023-01-26T20:04:03.428Z,99389.19
2023-01-26T20:06:33.790Z,99385.84
2023-01-26T20:09:06.182Z,99390.16
2023-01-26T20:11:34.817Z,99393.91
2023-01-26T20:14:06.581Z,99398.69
2023-01-26T20:16:35.504Z,99396.19
2023-01-26T20:19:04.379Z,99398.75
2023-01-26T20:21:34.330Z,99392.41
2023-01-26T20:24:06.883Z,99390.94
2023-01-26T20:26:37.778Z,99395.44
2023-01-26T20:29:06.559Z,99387.00
2023-01-26T20:31:35.033Z,99384.94
2023-01-26T20:34:03.819Z,99389.03
2023-01-26T20:36:33.376Z,99391.91
2023-01-26T20:39:01.596Z,99388.25
2023-01-26T20:41:31.447Z,99395.75
2023-01-26T20:44:03.171Z,99392.91
2023-01-26T20:46:39.926Z,99388.06
2023-01-26T20:49:11.041Z,99388.56
2023-01-26T20:51:42.826Z,99395.34
2023-01-26T20:54:16.029Z,99389.69
2023-01-26T20:56:49.226Z,99379.03
2023-01-26T20:59:17.513Z,99380.09
2023-01-26T21:01:46.100Z,99380.50
2023-01-26T21:04:14.286Z,99377.19
2023-01-26T21:06:42.764Z,99376.72
2023-01-26T21:09:12.907Z,99381.75
2023-01-26T21:11:41.369Z,99376.06
2023-01-26T21:14:12.290Z,99375.97
2023-01-26T21:16:41.261Z,99368.63
2023-01-26T21:19:09.493Z,99372.12
2023-01-26T21:21:37.573Z,99378.41
2023-01-26T21:24:06.643Z,99370.22
2023-01-26T21:26:35.088Z,99365.94
2023-01-26T21:29:03.261Z,99363.47
2023-01-26T21:31:33.276Z,99360.31
2023-01-26T21:34:01.907Z,99353.59
2023-01-26T21:36:31.556Z,99355.84
2023-01-26T21:39:01.066Z,99359.38
2023-01-26T21:41:52.481Z,99357.78
2023-01-26T21:44:26.959Z,99349.84
2023-01-26T21:47:04.052Z,99350.91
2023-01-26T21:49:32.599Z,99345.44
2023-01-26T21:52:19.409Z,99332.97
2023-01-26T21:54:47.888Z,99347.94
2023-01-26T21:57:34.930Z,99352.69
2023-01-26T22:00:04.031Z,99335.44
2023-01-26T22:02:32.483Z,99342.47
2023-01-26T22:05:01.098Z,99338.63
2023-01-26T22:07:30.151Z,99337.91
2023-01-26T22:09:58.279Z,99335.38
2023-01-26T22:12:26.808Z,99326.09
2023-01-26T22:14:54.978Z,99329.94
2023-01-26T22:17:23.170Z,99328.44
2023-01-26T22:19:51.732Z,99332.31
2023-01-26T22:22:20.077Z,99326.53
2023-01-26T22:24:48.303Z,99329.56
2023-01-26T22:27:16.788Z,99323.88
2023-01-26T22:29:44.914Z,99321.50
2023-01-26T22:32:18.911Z,99324.38
2023-01-26T22:34:47.415Z,99314.69
2023-01-26T22:37:15.542Z,99320.72
2023-01-26T22:39:43.952Z,99311.62
2023-01-26T22:42:12.672Z,99311.50
2023-01-26T22:44:40.691Z,99310.41
2023-01-26T22:47:08.858Z,99309.84
2023-01-26T22:49:37.366Z,99305.47
2023-01-26T22:52:06.900Z,99304.25
2023-01-26T22:54:34.990Z,99299.47
2023-01-26T22:57:03.798Z,99305.09
2023-01-26T22:59:32.099Z,99301.13
2023-01-26T23:02:00.300Z,99294.69
2023-01-26T23:04:28.856Z,99292.47
2023-01-26T23:06:57.102Z,99297.09
2023-01-26T23:09:25.119Z,99302.94
2023-01-26T23:12:02.968Z,99299.94
2023-01-26T23:14:32.011Z,99298.09
2023-01-26T23:17:00.532Z,99292.66
2023-01-26T23:19:30.369Z,99288.00
2023-01-26T23:21:58.421Z,99289.78
2023-01-26T23:24:27.009Z,99287.06
2023-01-26T23:26:55.020Z,99282.19
2023-01-26T23:29:23.121Z,99288.91
2023-01-26T23:31:51.960Z,99287.22
2023-01-26T23:34:20.071Z,99290.38
2023-01-26T23:36:48.119Z,99285.50
2023-01-26T23:39:16.602Z,99284.97
2023-01-26T23:41:44.633Z,99280.78
2023-01-26T23:44:13.409Z,99284.47
2023-01-26T23:46:41.835Z,99279.44
2023-01-26T23:49:10.036Z,99277.25
2023-01-26T23:51:38.672Z,99286.13
2023-01-26T23:54:07.160Z,99277.84
2023-01-26T23:56:35.215Z,99282.34
2023-01-26T23:59:03.270Z,99280.28
